sensor_id;sensor_type;location;lat;lon;timestamp;pressure;altitude;pressure_sealevel;temperature;humidity
44148;BME280;29810;55.848;37.368;2022-12-05T00:00:39;101898.84;;;-9.67;70.88
44148;BME280;29810;55.848;37.368;2022-12-05T00:03:41;101906.66;;;-9.63;70.40
44148;BME280;29810;55.848;37.368;2022-12-05T00:06:43;101907.97;;;-9.58;70.52
44148;BME280;29810;55.848;37.368;2022-12-05T00:09:45;101875.44;;;-9.74;70.31
44148;BME280;29810;55.848;37.368;2022-12-05T00:12:47;101904.41;;;-9.60;70.68
44148;BME280;29810;55.848;37.368;2022-12-05T00:15:48;101902.53;;;-9.53;70.46
44148;BME280;29810;55.848;37.368;2022-12-05T00:18:50;101902.22;;;-9.47;70.16
44148;BME280;29810;55.848;37.368;2022-12-05T00:21:52;101886.50;;;-9.53;69.87
44148;BME280;29810;55.848;37.368;2022-12-05T00:24:54;101893.56;;;-9.59;70.44
44148;BME280;29810;55.848;37.368;2022-12-05T00:27:55;101890.53;;;-9.55;71.07
44148;BME280;29810;55.848;37.368;2022-12-05T00:31:00;101883.81;;;-9.65;70.43
44148;BME280;29810;55.848;37.368;2022-12-05T00:34:02;101886.09;;;-9.68;70.78
44148;BME280;29810;55.848;37.368;2022-12-05T00:37:03;101885.03;;;-9.70;70.75
44148;BME280;29810;55.848;37.368;2022-12-05T00:40:06;101881.34;;;-9.74;70.98
44148;BME280;29810;55.848;37.368;2022-12-05T00:43:07;101886.03;;;-9.78;71.01
44148;BME280;29810;55.848;37.368;2022-12-05T00:46:15;101887.66;;;-9.79;71.18
44148;BME280;29810;55.848;37.368;2022-12-05T00:49:17;101883.22;;;-9.82;71.43
44148;BME280;29810;55.848;37.368;2022-12-05T00:52:38;101865.16;;;-9.86;71.53
44148;BME280;29810;55.848;37.368;2022-12-05T00:55:40;101871.50;;;-9.81;71.04
44148;BME280;29810;55.848;37.368;2022-12-05T00:58:42;101876.94;;;-9.76;71.06
44148;BME280;29810;55.848;37.368;2022-12-05T01:01:45;101866.69;;;-9.78;71.13
44148;BME280;29810;55.848;37.368;2022-12-05T01:04:47;101851.63;;;-9.87;71.08
44148;BME280;29810;55.848;37.368;2022-12-05T01:07:48;101855.06;;;-9.86;71.01
44148;BME280;29810;55.848;37.368;2022-12-05T01:10:54;101858.13;;;-9.99;70.82
44148;BME280;29810;55.848;37.368;2022-12-05T01:13:56;101850.94;;;-9.94;71.50
44148;BME280;29810;55.848;37.368;2022-12-05T01:16:58;101842.00;;;-9.91;71.53
44148;BME280;29810;55.848;37.368;2022-12-05T01:19:59;101839.53;;;-10.10;71.13
44148;BME280;29810;55.848;37.368;2022-12-05T01:23:01;101840.28;;;-10.11;71.54
44148;BME280;29810;55.848;37.368;2022-12-05T01:26:07;101840.03;;;-10.04;71.52
44148;BME280;29810;55.848;37.368;2022-12-05T01:29:12;101833.87;;;-10.07;71.28
44148;BME280;29810;55.848;37.368;2022-12-05T01:32:13;101833.16;;;-9.96;72.22
44148;BME280;29810;55.848;37.368;2022-12-05T01:35:15;101825.69;;;-9.94;71.64
44148;BME280;29810;55.848;37.368;2022-12-05T01:38:17;101824.47;;;-9.89;71.48
44148;BME280;29810;55.848;37.368;2022-12-05T01:41:22;101819.78;;;-9.95;70.92
44148;BME280;29810;55.848;37.368;2022-12-05T01:47:27;101816.50;;;-9.94;71.47
44148;BME280;29810;55.848;37.368;2022-12-05T01:50:29;101812.00;;;-9.88;71.51
44148;BME280;29810;55.848;37.368;2022-12-05T01:53:31;101779.47;;;-10.04;71.49
44148;BME280;29810;55.848;37.368;2022-12-05T01:56:34;101821.13;;;-9.79;71.73
44148;BME280;29810;55.848;37.368;2022-12-05T01:59:38;101813.84;;;-9.95;70.70
44148;BME280;29810;55.848;37.368;2022-12-05T02:02:53;101810.03;;;-10.01;71.01
44148;BME280;29810;55.848;37.368;2022-12-05T02:05:57;101807.38;;;-10.02;71.06
44148;BME280;29810;55.848;37.368;2022-12-05T02:08:59;101797.56;;;-10.18;70.59
44148;BME280;29810;55.848;37.368;2022-12-05T02:12:02;101800.44;;;-10.24;70.79
44148;BME280;29810;55.848;37.368;2022-12-05T02:31:33;101798.34;;;-9.90;70.84
44148;BME280;29810;55.848;37.368;2022-12-05T02:34:37;101801.62;;;-9.91;70.52
44148;BME280;29810;55.848;37.368;2022-12-05T02:38:30;101799.00;;;-9.82;70.80
44148;BME280;29810;55.848;37.368;2022-12-05T02:44:40;101785.84;;;-9.88;69.82
44148;BME280;29810;55.848;37.368;2022-12-05T02:47:47;101785.84;;;-9.88;70.40
44148;BME280;29810;55.848;37.368;2022-12-05T02:50:51;101778.03;;;-9.91;70.11
44148;BME280;29810;55.848;37.368;2022-12-05T02:53:53;101779.81;;;-9.90;70.02
44148;BME280;29810;55.848;37.368;2022-12-05T02:56:58;101775.31;;;-10.03;69.47
44148;BME280;29810;55.848;37.368;2022-12-05T03:00:01;101779.28;;;-10.16;69.41
44148;BME280;29810;55.848;37.368;2022-12-05T03:03:11;101774.66;;;-10.30;69.42
44148;BME280;29810;55.848;37.368;2022-12-05T03:06:21;101759.25;;;-10.43;69.67
44148;BME280;29810;55.848;37.368;2022-12-05T03:09:32;101767.16;;;-10.49;69.82
44148;BME280;29810;55.848;37.368;2022-12-05T03:12:46;101765.87;;;-10.54;70.08
44148;BME280;29810;55.848;37.368;2022-12-05T03:15:52;101758.81;;;-10.48;70.34
44148;BME280;29810;55.848;37.368;2022-12-05T03:18:57;101760.69;;;-10.56;70.18
44148;BME280;29810;55.848;37.368;2022-12-05T03:22:06;101754.81;;;-10.46;70.62
44148;BME280;29810;55.848;37.368;2022-12-05T03:25:09;101753.16;;;-10.45;71.37
44148;BME280;29810;55.848;37.368;2022-12-05T03:28:48;101757.62;;;-10.33;71.21
44148;BME280;29810;55.848;37.368;2022-12-05T03:38:20;101743.03;;;-10.26;72.74
44148;BME280;29810;55.848;37.368;2022-12-05T03:41:39;101739.00;;;-10.24;72.21
44148;BME280;29810;55.848;37.368;2022-12-05T03:45:33;101746.97;;;-10.20;71.65
44148;BME280;29810;55.848;37.368;2022-12-05T03:48:49;101736.94;;;-10.28;70.73
44148;BME280;29810;55.848;37.368;2022-12-05T03:52:02;101735.03;;;-10.31;71.15
44148;BME280;29810;55.848;37.368;2022-12-05T03:55:08;101729.75;;;-10.34;71.41
44148;BME280;29810;55.848;37.368;2022-12-05T03:58:23;101730.59;;;-10.15;71.98
44148;BME280;29810;55.848;37.368;2022-12-05T04:01:28;101720.25;;;-10.18;71.89
44148;BME280;29810;55.848;37.368;2022-12-05T04:04:45;101731.34;;;-10.16;71.71
44148;BME280;29810;55.848;37.368;2022-12-05T04:08:03;101720.12;;;-10.09;71.62
44148;BME280;29810;55.848;37.368;2022-12-05T04:11:14;101726.56;;;-10.12;70.68
44148;BME280;29810;55.848;37.368;2022-12-05T04:14:25;101720.44;;;-10.25;70.26
44148;BME280;29810;55.848;37.368;2022-12-05T04:17:49;101716.16;;;-10.26;70.72
44148;BME280;29810;55.848;37.368;2022-12-05T04:20:53;101714.72;;;-10.33;70.95
44148;BME280;29810;55.848;37.368;2022-12-05T04:24:30;101709.94;;;-10.40;71.63
44148;BME280;29810;55.848;37.368;2022-12-05T04:28:03;101692.28;;;-10.40;71.69
44148;BME280;29810;55.848;37.368;2022-12-05T04:31:16;101703.91;;;-10.32;72.22
44148;BME280;29810;55.848;37.368;2022-12-05T04:34:22;101702.25;;;-10.31;71.48
44148;BME280;29810;55.848;37.368;2022-12-05T04:37:27;101698.47;;;-10.36;70.68
44148;BME280;29810;55.848;37.368;2022-12-05T04:40:39;101695.81;;;-10.38;71.37
44148;BME280;29810;55.848;37.368;2022-12-05T04:43:44;101695.44;;;-10.32;71.47
44148;BME280;29810;55.848;37.368;2022-12-05T04:46:48;101700.59;;;-10.41;71.55
44148;BME280;29810;55.848;37.368;2022-12-05T04:49:52;101666.12;;;-10.51;70.66
44148;BME280;29810;55.848;37.368;2022-12-05T04:52:56;101688.97;;;-10.49;70.53
44148;BME280;29810;55.848;37.368;2022-12-05T04:56:01;101677.72;;;-10.53;71.17
44148;BME280;29810;55.848;37.368;2022-12-05T04:59:04;101678.41;;;-10.45;71.82
44148;BME280;29810;55.848;37.368;2022-12-05T05:02:11;101683.97;;;-10.39;71.85
44148;BME280;29810;55.848;37.368;2022-12-05T05:05:15;101674.37;;;-10.33;70.99
44148;BME280;29810;55.848;37.368;2022-12-05T05:08:24;101669.59;;;-10.29;71.28
44148;BME280;29810;55.848;37.368;2022-12-05T05:11:38;101669.19;;;-10.34;71.34
44148;BME280;29810;55.848;37.368;2022-12-05T05:14:39;101668.44;;;-10.33;70.85
44148;BME280;29810;55.848;37.368;2022-12-05T05:17:41;101678.66;;;-10.42;70.67
44148;BME280;29810;55.848;37.368;2022-12-05T05:20:43;101676.38;;;-10.49;69.86
44148;BME280;29810;55.848;37.368;2022-12-05T05:23:45;101669.22;;;-10.63;70.37
44148;BME280;29810;55.848;37.368;2022-12-05T05:26:47;101687.19;;;-10.50;71.22
44148;BME280;29810;55.848;37.368;2022-12-05T05:29:48;101688.06;;;-10.50;70.65
44148;BME280;29810;55.848;37.368;2022-12-05T05:32:50;101685.03;;;-10.56;70.43
44148;BME280;29810;55.848;37.368;2022-12-05T05:35:52;101692.88;;;-10.53;70.26
44148;BME280;29810;55.848;37.368;2022-12-05T05:38:56;101685.72;;;-10.38;71.00
44148;BME280;29810;55.848;37.368;2022-12-05T05:41:58;101673.66;;;-10.21;70.04
44148;BME280;29810;55.848;37.368;2022-12-05T05:45:00;101671.38;;;-10.18;70.10
44148;BME280;29810;55.848;37.368;2022-12-05T05:48:02;101664.13;;;-10.05;70.95
44148;BME280;29810;55.848;37.368;2022-12-05T05:51:06;101671.97;;;-10.02;69.80
44148;BME280;29810;55.848;37.368;2022-12-05T05:54:08;101669.81;;;-9.97;69.75
44148;BME280;29810;55.848;37.368;2022-12-05T05:57:09;101659.25;;;-9.93;70.20
44148;BME280;29810;55.848;37.368;2022-12-05T06:00:11;101634.88;;;-9.92;70.04
44148;BME280;29810;55.848;37.368;2022-12-05T06:03:13;101666.19;;;-9.70;69.61
44148;BME280;29810;55.848;37.368;2022-12-05T06:06:15;101664.94;;;-9.65;69.27
44148;BME280;29810;55.848;37.368;2022-12-05T06:09:17;101662.69;;;-9.61;69.35
44148;BME280;29810;55.848;37.368;2022-12-05T06:12:19;101652.06;;;-9.68;68.33
44148;BME280;29810;55.848;37.368;2022-12-05T06:15:21;101663.44;;;-9.73;68.37
44148;BME280;29810;55.848;37.368;2022-12-05T06:18:22;101670.25;;;-9.72;68.36
44148;BME280;29810;55.848;37.368;2022-12-05T06:21:24;101666.97;;;-9.60;68.46
44148;BME280;29810;55.848;37.368;2022-12-05T06:24:26;101654.97;;;-9.53;68.63
44148;BME280;29810;55.848;37.368;2022-12-05T06:27:28;101655.50;;;-9.46;67.66
44148;BME280;29810;55.848;37.368;2022-12-05T06:30:31;101656.22;;;-9.58;66.80
44148;BME280;29810;55.848;37.368;2022-12-05T06:33:33;101656.63;;;-9.63;67.12
44148;BME280;29810;55.848;37.368;2022-12-05T06:36:35;101656.22;;;-9.58;66.90
44148;BME280;29810;55.848;37.368;2022-12-05T06:39:36;101635.16;;;-9.58;66.84
44148;BME280;29810;55.848;37.368;2022-12-05T06:42:38;101649.31;;;-9.29;66.54
44148;BME280;29810;55.848;37.368;2022-12-05T06:45:40;101634.88;;;-9.20;65.67
44148;BME280;29810;55.848;37.368;2022-12-05T06:48:42;101646.00;;;-9.08;64.59
44148;BME280;29810;55.848;37.368;2022-12-05T06:51:43;101651.53;;;-9.02;64.84
44148;BME280;29810;55.848;37.368;2022-12-05T06:54:45;101655.59;;;-8.93;64.79
44148;BME280;29810;55.848;37.368;2022-12-05T06:57:48;101645.59;;;-8.92;64.33
44148;BME280;29810;55.848;37.368;2022-12-05T07:00:50;101641.41;;;-9.02;64.10
44148;BME280;29810;55.848;37.368;2022-12-05T07:04:14;101657.59;;;-8.89;64.09
44148;BME280;29810;55.848;37.368;2022-12-05T07:07:16;101644.53;;;-8.73;63.87
44148;BME280;29810;55.848;37.368;2022-12-05T07:10:18;101646.38;;;-8.60;63.63
44148;BME280;29810;55.848;37.368;2022-12-05T07:13:19;101650.94;;;-8.56;63.45
44148;BME280;29810;55.848;37.368;2022-12-05T07:16:23;101642.59;;;-8.55;63.39
44148;BME280;29810;55.848;37.368;2022-12-05T07:19:24;101647.00;;;-8.53;63.19
44148;BME280;29810;55.848;37.368;2022-12-05T07:22:26;101637.00;;;-8.51;62.90
44148;BME280;29810;55.848;37.368;2022-12-05T07:25:27;101638.75;;;-8.50;62.62
44148;BME280;29810;55.848;37.368;2022-12-05T07:28:29;101647.16;;;-8.61;61.06
44148;BME280;29810;55.848;37.368;2022-12-05T07:31:30;101639.47;;;-8.73;61.86
44148;BME280;29810;55.848;37.368;2022-12-05T07:34:34;101637.66;;;-8.64;62.45
44148;BME280;29810;55.848;37.368;2022-12-05T07:37:35;101636.34;;;-8.49;62.25
44148;BME280;29810;55.848;37.368;2022-12-05T07:40:37;101628.88;;;-8.47;62.01
44148;BME280;29810;55.848;37.368;2022-12-05T07:43:40;101611.91;;;-8.48;61.37
44148;BME280;29810;55.848;37.368;2022-12-05T07:46:41;101616.69;;;-8.41;61.65
44148;BME280;29810;55.848;37.368;2022-12-05T07:49:43;101618.34;;;-8.41;61.66
44148;BME280;29810;55.848;37.368;2022-12-05T07:52:44;101615.16;;;-8.39;62.15
44148;BME280;29810;55.848;37.368;2022-12-05T07:55:46;101614.09;;;-8.30;61.41
44148;BME280;29810;55.848;37.368;2022-12-05T07:58:48;101604.97;;;-8.28;60.59
44148;BME280;29810;55.848;37.368;2022-12-05T08:01:50;101610.31;;;-8.36;60.82
44148;BME280;29810;55.848;37.368;2022-12-05T08:04:52;101592.59;;;-8.36;61.08
44148;BME280;29810;55.848;37.368;2022-12-05T08:07:54;101599.34;;;-8.36;60.32
44148;BME280;29810;55.848;37.368;2022-12-05T08:10:56;101596.94;;;-8.57;60.33
44148;BME280;29810;55.848;37.368;2022-12-05T08:14:03;101594.50;;;-8.55;60.53
44148;BME280;29810;55.848;37.368;2022-12-05T08:17:06;101595.75;;;-8.50;60.43
44148;BME280;29810;55.848;37.368;2022-12-05T08:20:07;101588.28;;;-8.49;60.70
44148;BME280;29810;55.848;37.368;2022-12-05T08:23:09;101573.00;;;-8.38;60.51
44148;BME280;29810;55.848;37.368;2022-12-05T08:26:13;101570.31;;;-8.29;60.12
44148;BME280;29810;55.848;37.368;2022-12-05T08:29:19;101577.31;;;-8.15;59.74
44148;BME280;29810;55.848;37.368;2022-12-05T08:32:21;101571.28;;;-8.05;59.60
44148;BME280;29810;55.848;37.368;2022-12-05T08:35:23;101553.34;;;-8.08;59.60
44148;BME280;29810;55.848;37.368;2022-12-05T08:38:24;101570.22;;;-7.97;59.74
44148;BME280;29810;55.848;37.368;2022-12-05T08:41:28;101566.09;;;-8.07;59.41
44148;BME280;29810;55.848;37.368;2022-12-05T08:44:30;101570.41;;;-8.06;59.34
44148;BME280;29810;55.848;37.368;2022-12-05T08:47:32;101564.81;;;-8.02;59.33
44148;BME280;29810;55.848;37.368;2022-12-05T08:50:33;101569.88;;;-8.02;59.32
44148;BME280;29810;55.848;37.368;2022-12-05T08:53:38;101552.44;;;-8.09;59.28
44148;BME280;29810;55.848;37.368;2022-12-05T08:56:40;101554.31;;;-8.06;59.22
44148;BME280;29810;55.848;37.368;2022-12-05T08:59:41;101545.16;;;-8.16;58.91
44148;BME280;29810;55.848;37.368;2022-12-05T09:02:43;101517.56;;;-8.35;59.03
44148;BME280;29810;55.848;37.368;2022-12-05T09:05:45;101544.22;;;-8.28;59.11
44148;BME280;29810;55.848;37.368;2022-12-05T09:08:47;101544.28;;;-8.17;58.96
44148;BME280;29810;55.848;37.368;2022-12-05T09:11:49;101526.22;;;-8.21;58.53
44148;BME280;29810;55.848;37.368;2022-12-05T09:14:51;101528.09;;;-8.19;58.70
44148;BME280;29810;55.848;37.368;2022-12-05T09:17:52;101531.38;;;-8.20;58.55
44148;BME280;29810;55.848;37.368;2022-12-05T09:20:54;101520.12;;;-8.23;58.88
44148;BME280;29810;55.848;37.368;2022-12-05T09:23:58;101518.66;;;-8.09;58.86
44148;BME280;29810;55.848;37.368;2022-12-05T09:26:59;101510.25;;;-8.20;58.33
44148;BME280;29810;55.848;37.368;2022-12-05T09:30:02;101520.84;;;-8.14;58.29
44148;BME280;29810;55.848;37.368;2022-12-05T09:33:05;101515.25;;;-8.10;58.23
44148;BME280;29810;55.848;37.368;2022-12-05T09:36:23;101510.88;;;-8.01;58.18
44148;BME280;29810;55.848;37.368;2022-12-05T09:39:25;101507.03;;;-7.95;57.92
44148;BME280;29810;55.848;37.368;2022-12-05T09:45:55;101470.91;;;-8.05;58.01
44148;BME280;29810;55.848;37.368;2022-12-05T09:49:01;101485.78;;;-7.86;58.38
44148;BME280;29810;55.848;37.368;2022-12-05T09:52:04;101486.22;;;-7.91;57.73
44148;BME280;29810;55.848;37.368;2022-12-05T09:55:14;101478.34;;;-8.06;58.06
44148;BME280;29810;55.848;37.368;2022-12-05T10:05:05;101471.25;;;-7.88;58.51
44148;BME280;29810;55.848;37.368;2022-12-05T10:08:23;101463.75;;;-7.87;58.43
44148;BME280;29810;55.848;37.368;2022-12-05T10:18:36;101459.34;;;-7.89;58.66
44148;BME280;29810;55.848;37.368;2022-12-05T10:21:51;101456.28;;;-7.85;58.64
44148;BME280;29810;55.848;37.368;2022-12-05T10:25:02;101444.03;;;-7.91;58.33
44148;BME280;29810;55.848;37.368;2022-12-05T10:28:12;101447.03;;;-7.85;58.70
44148;BME280;29810;55.848;37.368;2022-12-05T10:31:18;101450.69;;;-7.81;58.50
44148;BME280;29810;55.848;37.368;2022-12-05T10:34:30;101453.75;;;-7.85;58.64
44148;BME280;29810;55.848;37.368;2022-12-05T10:37:33;101462.44;;;-7.93;58.47
44148;BME280;29810;55.848;37.368;2022-12-05T10:40:40;101444.56;;;-8.07;58.73
44148;BME280;29810;55.848;37.368;2022-12-05T10:43:45;101443.69;;;-8.07;59.15
44148;BME280;29810;55.848;37.368;2022-12-05T10:46:47;101450.41;;;-8.08;59.14
44148;BME280;29810;55.848;37.368;2022-12-05T10:49:50;101454.91;;;-8.04;59.14
44148;BME280;29810;55.848;37.368;2022-12-05T10:52:54;101455.38;;;-7.97;59.26
44148;BME280;29810;55.848;37.368;2022-12-05T10:55:57;101453.38;;;-8.02;58.97
44148;BME280;29810;55.848;37.368;2022-12-05T10:59:19;101451.41;;;-8.06;59.13
44148;BME280;29810;55.848;37.368;2022-12-05T11:02:25;101454.03;;;-8.04;59.06
44148;BME280;29810;55.848;37.368;2022-12-05T11:05:28;101444.19;;;-8.23;59.28
44148;BME280;29810;55.848;37.368;2022-12-05T11:08:31;101447.66;;;-8.11;59.79
44148;BME280;29810;55.848;37.368;2022-12-05T11:11:34;101443.69;;;-8.19;59.33
44148;BME280;29810;55.848;37.368;2022-12-05T11:14:36;101436.56;;;-8.35;59.60
44148;BME280;29810;55.848;37.368;2022-12-05T11:17:39;101439.47;;;-8.30;60.06
44148;BME280;29810;55.848;37.368;2022-12-05T11:20:41;101433.75;;;-8.28;59.81
44148;BME280;29810;55.848;37.368;2022-12-05T11:23:42;101439.94;;;-8.24;59.94
44148;BME280;29810;55.848;37.368;2022-12-05T11:26:44;101427.13;;;-8.26;59.82
44148;BME280;29810;55.848;37.368;2022-12-05T11:30:16;101433.19;;;-8.24;59.81
44148;BME280;29810;55.848;37.368;2022-12-05T11:33:21;101423.84;;;-8.13;59.91
44148;BME280;29810;55.848;37.368;2022-12-05T11:36:37;101401.06;;;-8.25;59.64
44148;BME280;29810;55.848;37.368;2022-12-05T11:39:40;101420.00;;;-8.08;59.67
44148;BME280;29810;55.848;37.368;2022-12-05T11:49:35;101403.06;;;-8.09;59.26
44148;BME280;29810;55.848;37.368;2022-12-05T11:53:04;101400.53;;;-8.09;59.23
44148;BME280;29810;55.848;37.368;2022-12-05T12:03:09;101377.62;;;-8.22;59.58
44148;BME280;29810;55.848;37.368;2022-12-05T12:06:26;101382.47;;;-8.25;59.42
44148;BME280;29810;55.848;37.368;2022-12-05T12:09:44;101370.13;;;-8.21;59.52
44148;BME280;29810;55.848;37.368;2022-12-05T12:22:47;101352.66;;;-8.18;59.74
44148;BME280;29810;55.848;37.368;2022-12-05T12:26:12;101350.34;;;-8.15;59.26
44148;BME280;29810;55.848;37.368;2022-12-05T12:33:45;101344.16;;;-8.18;59.03
44148;BME280;29810;55.848;37.368;2022-12-05T12:40:19;101351.53;;;-8.21;59.61
44148;BME280;29810;55.848;37.368;2022-12-05T12:46:31;101352.94;;;-8.37;59.72
44148;BME280;29810;55.848;37.368;2022-12-05T12:50:04;101353.50;;;-8.41;59.55
44148;BME280;29810;55.848;37.368;2022-12-05T12:57:21;101341.19;;;-8.48;60.40
44148;BME280;29810;55.848;37.368;2022-12-05T13:00:55;101343.28;;;-8.54;60.22
44148;BME280;29810;55.848;37.368;2022-12-05T13:04:05;101338.84;;;-8.69;60.26
44148;BME280;29810;55.848;37.368;2022-12-05T13:07:27;101322.19;;;-8.77;60.62
44148;BME280;29810;55.848;37.368;2022-12-05T13:10:38;101320.56;;;-8.76;61.03
44148;BME280;29810;55.848;37.368;2022-12-05T13:13:48;101323.00;;;-8.78;61.25
44148;BME280;29810;55.848;37.368;2022-12-05T13:16:52;101320.31;;;-8.79;61.39
44148;BME280;29810;55.848;37.368;2022-12-05T13:19:55;101324.03;;;-8.86;61.62
44148;BME280;29810;55.848;37.368;2022-12-05T13:22:57;101313.38;;;-8.82;61.95
44148;BME280;29810;55.848;37.368;2022-12-05T13:26:00;101318.59;;;-8.80;61.98
44148;BME280;29810;55.848;37.368;2022-12-05T13:29:37;101302.28;;;-8.84;62.19
44148;BME280;29810;55.848;37.368;2022-12-05T13:32:40;101315.97;;;-8.70;62.24
44148;BME280;29810;55.848;37.368;2022-12-05T13:35:42;101306.38;;;-8.74;62.13
44148;BME280;29810;55.848;37.368;2022-12-05T13:39:17;101312.66;;;-8.57;62.62
44148;BME280;29810;55.848;37.368;2022-12-05T13:42:40;101223.09;;;-9.07;62.44
44148;BME280;29810;55.848;37.368;2022-12-05T13:45:59;101282.53;;;-8.78;62.53
44148;BME280;29810;55.848;37.368;2022-12-05T13:49:28;101285.63;;;-8.70;62.88
44148;BME280;29810;55.848;37.368;2022-12-05T13:52:44;101300.91;;;-8.69;63.06
44148;BME280;29810;55.848;37.368;2022-12-05T14:02:58;101303.31;;;-8.70;63.69
44148;BME280;29810;55.848;37.368;2022-12-05T14:06:03;101286.47;;;-8.82;63.57
44148;BME280;29810;55.848;37.368;2022-12-05T14:15:35;101284.87;;;-8.91;64.23
44148;BME280;29810;55.848;37.368;2022-12-05T14:18:47;101273.16;;;-8.91;64.50
44148;BME280;29810;55.848;37.368;2022-12-05T14:22:14;101268.16;;;-9.01;64.60
44148;BME280;29810;55.848;37.368;2022-12-05T14:25:40;101279.25;;;-8.99;64.72
44148;BME280;29810;55.848;37.368;2022-12-05T14:35:55;101277.63;;;-8.99;65.18
44148;BME280;29810;55.848;37.368;2022-12-05T14:42:57;101258.53;;;-8.83;65.42
44148;BME280;29810;55.848;37.368;2022-12-05T14:46:06;101258.53;;;-8.83;65.28
44148;BME280;29810;55.848;37.368;2022-12-05T14:56:22;101154.38;;;-9.25;65.08
44148;BME280;29810;55.848;37.368;2022-12-05T14:59:42;101231.59;;;-8.83;65.18
44148;BME280;29810;55.848;37.368;2022-12-05T15:02:52;101231.16;;;-8.77;65.41
44148;BME280;29810;55.848;37.368;2022-12-05T15:05:57;101232.16;;;-8.75;65.33
44148;BME280;29810;55.848;37.368;2022-12-05T15:13:11;101215.66;;;-8.70;65.13
44148;BME280;29810;55.848;37.368;2022-12-05T15:16:18;101228.22;;;-8.59;65.02
44148;BME280;29810;55.848;37.368;2022-12-05T15:19:24;101234.03;;;-8.49;64.88
44148;BME280;29810;55.848;37.368;2022-12-05T15:22:36;101226.75;;;-8.44;64.72
44148;BME280;29810;55.848;37.368;2022-12-05T15:25:38;101213.50;;;-8.53;64.66
44148;BME280;29810;55.848;37.368;2022-12-05T15:29:03;101217.63;;;-8.42;64.59
44148;BME280;29810;55.848;37.368;2022-12-05T15:35:12;101219.87;;;-8.46;64.54
44148;BME280;29810;55.848;37.368;2022-12-05T15:38:29;101222.81;;;-8.52;64.72
44148;BME280;29810;55.848;37.368;2022-12-05T15:41:33;101210.63;;;-8.46;65.13
44148;BME280;29810;55.848;37.368;2022-12-05T15:44:34;101203.69;;;-8.49;64.99
44148;BME280;29810;55.848;37.368;2022-12-05T15:47:36;101208.25;;;-8.43;64.97
44148;BME280;29810;55.848;37.368;2022-12-05T15:50:41;101192.97;;;-8.44;64.96
44148;BME280;29810;55.848;37.368;2022-12-05T15:53:59;101201.56;;;-8.30;64.81
44148;BME280;29810;55.848;37.368;2022-12-05T15:57:18;101195.81;;;-8.28;64.62
44148;BME280;29810;55.848;37.368;2022-12-05T16:00:22;101174.69;;;-8.28;64.76
44148;BME280;29810;55.848;37.368;2022-12-05T16:03:36;101183.47;;;-8.23;64.67
44148;BME280;29810;55.848;37.368;2022-12-05T16:06:48;101180.41;;;-8.19;64.50
44148;BME280;29810;55.848;37.368;2022-12-05T16:09:55;101179.97;;;-8.13;64.46
44148;BME280;29810;55.848;37.368;2022-12-05T16:13:04;101182.50;;;-8.13;64.18
44148;BME280;29810;55.848;37.368;2022-12-05T16:16:07;101179.19;;;-8.12;64.11
44148;BME280;29810;55.848;37.368;2022-12-05T16:19:15;101173.91;;;-8.16;64.03
44148;BME280;29810;55.848;37.368;2022-12-05T16:22:28;101170.16;;;-8.21;64.05
44148;BME280;29810;55.848;37.368;2022-12-05T16:25:35;101146.84;;;-8.28;64.06
44148;BME280;29810;55.848;37.368;2022-12-05T16:28:38;101166.19;;;-8.17;64.01
44148;BME280;29810;55.848;37.368;2022-12-05T16:31:41;101164.88;;;-8.12;63.99
44148;BME280;29810;55.848;37.368;2022-12-05T16:34:44;101143.22;;;-8.20;63.56
44148;BME280;29810;55.848;37.368;2022-12-05T16:37:46;101134.53;;;-8.24;63.84
44148;BME280;29810;55.848;37.368;2022-12-05T16:43:50;101154.19;;;-8.08;63.75
44148;BME280;29810;55.848;37.368;2022-12-05T16:46:54;101144.94;;;-8.07;63.75
44148;BME280;29810;55.848;37.368;2022-12-05T16:49:56;101142.72;;;-8.03;63.63
44148;BME280;29810;55.848;37.368;2022-12-05T16:53:33;101144.91;;;-7.95;63.43
44148;BME280;29810;55.848;37.368;2022-12-05T16:56:35;101145.87;;;-7.93;63.23
44148;BME280;29810;55.848;37.368;2022-12-05T16:59:38;101134.97;;;-7.92;63.27
44148;BME280;29810;55.848;37.368;2022-12-05T17:02:45;101142.00;;;-7.88;63.09
44148;BME280;29810;55.848;37.368;2022-12-05T17:05:47;101127.38;;;-7.92;63.14
44148;BME280;29810;55.848;37.368;2022-12-05T17:08:49;101140.22;;;-7.77;63.13
44148;BME280;29810;55.848;37.368;2022-12-05T17:12:01;101136.59;;;-7.81;62.85
44148;BME280;29810;55.848;37.368;2022-12-05T17:15:03;101133.00;;;-7.71;62.90
44148;BME280;29810;55.848;37.368;2022-12-05T17:18:11;101136.44;;;-7.71;62.43
44148;BME280;29810;55.848;37.368;2022-12-05T17:21:19;101135.63;;;-7.70;62.64
44148;BME280;29810;55.848;37.368;2022-12-05T17:24:21;101144.25;;;-7.68;62.66
44148;BME280;29810;55.848;37.368;2022-12-05T17:27:25;101150.75;;;-7.71;62.34
44148;BME280;29810;55.848;37.368;2022-12-05T17:30:27;101144.03;;;-7.71;62.61
44148;BME280;29810;55.848;37.368;2022-12-05T17:33:28;101134.59;;;-7.73;62.68
44148;BME280;29810;55.848;37.368;2022-12-05T17:36:30;101148.31;;;-7.70;62.53
44148;BME280;29810;55.848;37.368;2022-12-05T17:39:32;101144.63;;;-7.75;62.50
44148;BME280;29810;55.848;37.368;2022-12-05T17:42:33;101147.50;;;-7.82;62.66
44148;BME280;29810;55.848;37.368;2022-12-05T17:45:35;101141.66;;;-7.81;62.64
44148;BME280;29810;55.848;37.368;2022-12-05T17:48:36;101134.72;;;-7.84;62.69
44148;BME280;29810;55.848;37.368;2022-12-05T17:51:39;101132.09;;;-7.85;62.83
44148;BME280;29810;55.848;37.368;2022-12-05T17:54:42;101124.38;;;-7.87;62.94
44148;BME280;29810;55.848;37.368;2022-12-05T17:57:44;101118.34;;;-7.89;62.93
44148;BME280;29810;55.848;37.368;2022-12-05T18:00:46;101127.94;;;-7.96;62.99
44148;BME280;29810;55.848;37.368;2022-12-05T18:03:48;101130.47;;;-7.96;63.11
44148;BME280;29810;55.848;37.368;2022-12-05T18:06:50;101134.78;;;-7.95;63.40